sensor_id;sensor_type;location;lat;lon;timestamp;pressure;altitude;pressure_sealevel;temperature;humidity
16120;BME280;12670;53.502;10.252;2024-01-15T00:00:56;98936.53;;;1.93;100.00
16120;BME280;12670;53.502;10.252;2024-01-15T00:03:59;98918.00;;;2.00;100.00
16120;BME280;12670;53.502;10.252;2024-01-15T00:07:03;98918.72;;;2.04;100.00
16120;BME280;12670;53.502;10.252;2024-01-15T00:10:06;98918.72;;;2.04;100.00
16120;BME280;12670;53.502;10.252;2024-01-15T00:13:10;98908.16;;;2.07;100.00
16120;BME280;12670;53.502;10.252;2024-01-15T00:16:13;98903.72;;;2.09;100.00
16120;BME280;12670;53.502;10.252;2024-01-15T00:19:16;98900.06;;;2.13;100.00
16120;BME280;12670;53.502;10.252;2024-01-15T00:22:18;98884.69;;;2.05;100.00
16120;BME280;12670;53.502;10.252;2024-01-15T00:25:21;98896.00;;;2.06;100.00
16120;BME280;12670;53.502;10.252;2024-01-15T00:28:25;98890.91;;;1.78;100.00
16120;BME280;12670;53.502;10.252;2024-01-15T00:31:28;98903.38;;;1.95;100.00
16120;BME280;12670;53.502;10.252;2024-01-15T00:34:31;98906.16;;;1.65;100.00
16120;BME280;12670;53.502;10.252;2024-01-15T00:37:34;98905.81;;;1.74;100.00
16120;BME280;12670;53.502;10.252;2024-01-15T00:40:36;98893.56;;;1.76;100.00
16120;BME280;12670;53.502;10.252;2024-01-15T00:43:40;98889.69;;;1.86;100.00
16120;BME280;12670;53.502;10.252;2024-01-15T00:46:44;98864.94;;;1.97;100.00
16120;BME280;12670;53.502;10.252;2024-01-15T00:49:47;98856.41;;;1.92;100.00
16120;BME280;12670;53.502;10.252;2024-01-15T00:52:50;98847.19;;;1.81;100.00
16120;BME280;12670;53.502;10.252;2024-01-15T00:55:52;98843.09;;;1.98;100.00
16120;BME280;12670;53.502;10.252;2024-01-15T00:58:56;98844.69;;;1.78;100.00
16120;BME280;12670;53.502;10.252;2024-01-15T01:01:59;98858.09;;;1.93;100.00
16120;BME280;12670;53.502;10.252;2024-01-15T01:05:02;98843.00;;;1.77;100.00
16120;BME280;12670;53.502;10.252;2024-01-15T01:08:05;98840.25;;;1.80;100.00
16120;BME280;12670;53.502;10.252;2024-01-15T01:11:12;98833.44;;;2.00;100.00
16120;BME280;12670;53.502;10.252;2024-01-15T01:14:16;98832.38;;;2.05;100.00
16120;BME280;12670;53.502;10.252;2024-01-15T01:17:19;98818.09;;;1.91;100.00
16120;BME280;12670;53.502;10.252;2024-01-15T01:20:22;98819.56;;;1.74;100.00
16120;BME280;12670;53.502;10.252;2024-01-15T01:23:25;98810.00;;;1.97;100.00
16120;BME280;12670;53.502;10.252;2024-01-15T01:26:27;98793.78;;;2.10;100.00
16120;BME280;12670;53.502;10.252;2024-01-15T01:29:31;98798.78;;;1.95;100.00
16120;BME280;12670;53.502;10.252;2024-01-15T01:32:34;98789.09;;;1.97;100.00
16120;BME280;12670;53.502;10.252;2024-01-15T01:35:37;98784.31;;;2.08;100.00
16120;BME280;12670;53.502;10.252;2024-01-15T01:38:40;98787.78;;;2.08;100.00
16120;BME280;12670;53.502;10.252;2024-01-15T01:41:43;98787.44;;;2.18;100.00
16120;BME280;12670;53.502;10.252;2024-01-15T01:44:47;98793.44;;;2.20;100.00
16120;BME280;12670;53.502;10.252;2024-01-15T01:47:49;98792.69;;;2.16;100.00
16120;BME280;12670;53.502;10.252;2024-01-15T01:50:53;98797.94;;;2.16;100.00
16120;BME280;12670;53.502;10.252;2024-01-15T01:53:57;98792.84;;;2.13;100.00
16120;BME280;12670;53.502;10.252;2024-01-15T01:57:02;98793.69;;;2.13;100.00
16120;BME280;12670;53.502;10.252;2024-01-15T02:00:08;98810.75;;;2.24;100.00
16120;BME280;12670;53.502;10.252;2024-01-15T02:03:11;98802.16;;;2.20;100.00
16120;BME280;12670;53.502;10.252;2024-01-15T02:06:14;98805.31;;;2.28;100.00
16120;BME280;12670;53.502;10.252;2024-01-15T02:09:17;98786.28;;;2.25;100.00
16120;BME280;12670;53.502;10.252;2024-01-15T02:12:20;98781.31;;;2.40;100.00
16120;BME280;12670;53.502;10.252;2024-01-15T02:15:25;98785.28;;;2.27;100.00
16120;BME280;12670;53.502;10.252;2024-01-15T02:18:27;98773.44;;;2.40;100.00
16120;BME280;12670;53.502;10.252;2024-01-15T02:21:31;98784.81;;;2.18;100.00
16120;BME280;12670;53.502;10.252;2024-01-15T02:24:35;98777.75;;;2.20;100.00
16120;BME280;12670;53.502;10.252;2024-01-15T02:27:38;98776.41;;;2.09;100.00
16120;BME280;12670;53.502;10.252;2024-01-15T02:30:42;98795.31;;;1.94;100.00
16120;BME280;12670;53.502;10.252;2024-01-15T02:33:45;98792.84;;;1.90;100.00
16120;BME280;12670;53.502;10.252;2024-01-15T02:36:48;98769.66;;;1.80;100.00
16120;BME280;12670;53.502;10.252;2024-01-15T02:39:52;98778.78;;;2.16;100.00
16120;BME280;12670;53.502;10.252;2024-01-15T02:42:55;98787.03;;;1.81;100.00
16120;BME280;12670;53.502;10.252;2024-01-15T02:45:58;98783.09;;;1.95;100.00
16120;BME280;12670;53.502;10.252;2024-01-15T02:49:00;98776.69;;;2.02;100.00
16120;BME280;12670;53.502;10.252;2024-01-15T02:52:03;98767.22;;;2.21;100.00
16120;BME280;12670;53.502;10.252;2024-01-15T02:55:08;98767.63;;;2.10;100.00
16120;BME280;12670;53.502;10.252;2024-01-15T02:58:11;98764.53;;;2.23;100.00
16120;BME280;12670;53.502;10.252;2024-01-15T03:01:13;98770.06;;;2.15;100.00
16120;BME280;12670;53.502;10.252;2024-01-15T03:04:16;98763.19;;;2.34;100.00
16120;BME280;12670;53.502;10.252;2024-01-15T03:07:19;98770.03;;;2.38;100.00
16120;BME280;12670;53.502;10.252;2024-01-15T03:10:23;98788.81;;;2.26;100.00
16120;BME280;12670;53.502;10.252;2024-01-15T03:13:26;98757.31;;;2.29;100.00
16120;BME280;12670;53.502;10.252;2024-01-15T03:16:29;98746.72;;;2.10;100.00
16120;BME280;12670;53.502;10.252;2024-01-15T03:19:34;98764.16;;;2.10;100.00
16120;BME280;12670;53.502;10.252;2024-01-15T03:22:37;98766.69;;;2.13;100.00
16120;BME280;12670;53.502;10.252;2024-01-15T03:25:41;98767.16;;;2.01;100.00
16120;BME280;12670;53.502;10.252;2024-01-15T03:28:44;98777.84;;;1.95;100.00
16120;BME280;12670;53.502;10.252;2024-01-15T03:31:47;98765.09;;;2.09;100.00
16120;BME280;12670;53.502;10.252;2024-01-15T03:34:49;98769.22;;;2.14;100.00
16120;BME280;12670;53.502;10.252;2024-01-15T03:37:54;98778.94;;;2.11;100.00
16120;BME280;12670;53.502;10.252;2024-01-15T03:40:58;98791.00;;;2.15;100.00
16120;BME280;12670;53.502;10.252;2024-01-15T03:44:00;98802.91;;;2.00;100.00
16120;BME280;12670;53.502;10.252;2024-01-15T03:47:04;98790.63;;;2.02;100.00
16120;BME280;12670;53.502;10.252;2024-01-15T03:50:07;98793.41;;;1.98;100.00
16120;BME280;12670;53.502;10.252;2024-01-15T03:53:10;98786.16;;;1.82;100.00
16120;BME280;12670;53.502;10.252;2024-01-15T03:56:14;98794.31;;;1.97;100.00
16120;BME280;12670;53.502;10.252;2024-01-15T03:59:16;98799.56;;;1.97;100.00
16120;BME280;12670;53.502;10.252;2024-01-15T04:02:19;98795.34;;;1.93;100.00
16120;BME280;12670;53.502;10.252;2024-01-15T04:05:21;98800.78;;;2.10;100.00
16120;BME280;12670;53.502;10.252;2024-01-15T04:08:24;98798.16;;;2.10;100.00
16120;BME280;12670;53.502;10.252;2024-01-15T04:11:28;98794.78;;;2.08;100.00
16120;BME280;12670;53.502;10.252;2024-01-15T04:14:31;98797.56;;;2.03;100.00
16120;BME280;12670;53.502;10.252;2024-01-15T04:17:34;98790.22;;;2.13;100.00
16120;BME280;12670;53.502;10.252;2024-01-15T04:20:36;98789.72;;;2.03;100.00
16120;BME280;12670;53.502;10.252;2024-01-15T04:23:39;98796.47;;;2.09;100.00
16120;BME280;12670;53.502;10.252;2024-01-15T04:26:43;98790.88;;;1.96;100.00
16120;BME280;12670;53.502;10.252;2024-01-15T04:29:46;98798.78;;;1.95;100.00
16120;BME280;12670;53.502;10.252;2024-01-15T04:32:49;98794.59;;;2.12;100.00
16120;BME280;12670;53.502;10.252;2024-01-15T04:35:52;98796.97;;;2.19;100.00
16120;BME280;12670;53.502;10.252;2024-01-15T04:38:54;98787.09;;;2.03;100.00
16120;BME280;12670;53.502;10.252;2024-01-15T04:41:58;98790.22;;;2.13;100.00
16120;BME280;12670;53.502;10.252;2024-01-15T04:45:01;98803.69;;;2.02;100.00
16120;BME280;12670;53.502;10.252;2024-01-15T04:48:04;98800.75;;;2.33;100.00
16120;BME280;12670;53.502;10.252;2024-01-15T04:51:08;98800.31;;;2.22;100.00
16120;BME280;12670;53.502;10.252;2024-01-15T04:54:12;98802.56;;;2.09;100.00
16120;BME280;12670;53.502;10.252;2024-01-15T04:57:20;98806.47;;;1.98;100.00
16120;BME280;12670;53.502;10.252;2024-01-15T05:00:23;98801.72;;;2.31;100.00
16120;BME280;12670;53.502;10.252;2024-01-15T05:03:25;98803.66;;;2.26;100.00
16120;BME280;12670;53.502;10.252;2024-01-15T05:06:28;98805.22;;;2.08;100.00
16120;BME280;12670;53.502;10.252;2024-01-15T05:09:31;98810.56;;;2.05;100.00
16120;BME280;12670;53.502;10.252;2024-01-15T05:12:35;98804.22;;;2.12;100.00
16120;BME280;12670;53.502;10.252;2024-01-15T05:15:38;98801.94;;;2.03;100.00
16120;BME280;12670;53.502;10.252;2024-01-15T05:18:41;98813.16;;;2.28;100.00
16120;BME280;12670;53.502;10.252;2024-01-15T05:21:45;98812.25;;;2.29;100.00
16120;BME280;12670;53.502;10.252;2024-01-15T05:24:47;98808.16;;;2.22;100.00
16120;BME280;12670;53.502;10.252;2024-01-15T05:27:51;98807.53;;;2.16;100.00
16120;BME280;12670;53.502;10.252;2024-01-15T05:30:54;98811.53;;;2.02;100.00
16120;BME280;12670;53.502;10.252;2024-01-15T05:33:57;98813.16;;;2.28;100.00
16120;BME280;12670;53.502;10.252;2024-01-15T05:37:00;98802.69;;;2.06;100.00
16120;BME280;12670;53.502;10.252;2024-01-15T05:40:03;98809.31;;;2.15;100.00
16120;BME280;12670;53.502;10.252;2024-01-15T05:43:08;98806.16;;;2.07;100.00
16120;BME280;12670;53.502;10.252;2024-01-15T05:46:10;98813.34;;;2.24;100.00
16120;BME280;12670;53.502;10.252;2024-01-15T05:49:13;98801.84;;;2.06;100.00
16120;BME280;12670;53.502;10.252;2024-01-15T05:52:16;98823.13;;;2.19;100.00
16120;BME280;12670;53.502;10.252;2024-01-15T05:55:19;98817.59;;;2.26;100.00
16120;BME280;12670;53.502;10.252;2024-01-15T05:58:23;98810.91;;;2.19;100.00
16120;BME280;12670;53.502;10.252;2024-01-15T06:01:25;98805.19;;;2.31;100.00
16120;BME280;12670;53.502;10.252;2024-01-15T06:04:28;98811.00;;;2.16;100.00
16120;BME280;12670;53.502;10.252;2024-01-15T06:07:31;98805.75;;;2.18;100.00
16120;BME280;12670;53.502;10.252;2024-01-15T06:10:34;98809.28;;;2.38;100.00
16120;BME280;12670;53.502;10.252;2024-01-15T06:13:38;98826.81;;;2.36;100.00
16120;BME280;12670;53.502;10.252;2024-01-15T06:16:41;98817.78;;;2.44;100.00
16120;BME280;12670;53.502;10.252;2024-01-15T06:19:44;98826.13;;;2.31;100.00
16120;BME280;12670;53.502;10.252;2024-01-15T06:22:47;98820.47;;;2.42;100.00
16120;BME280;12670;53.502;10.252;2024-01-15T06:25:49;98812.91;;;2.34;100.00
16120;BME280;12670;53.502;10.252;2024-01-15T06:28:53;98825.72;;;2.42;100.00
16120;BME280;12670;53.502;10.252;2024-01-15T06:31:56;98822.53;;;2.56;100.00
16120;BME280;12670;53.502;10.252;2024-01-15T06:34:59;98822.78;;;2.50;100.00
16120;BME280;12670;53.502;10.252;2024-01-15T06:38:02;98823.09;;;2.42;100.00
16120;BME280;12670;53.502;10.252;2024-01-15T06:41:05;98829.72;;;2.51;100.00
16120;BME280;12670;53.502;10.252;2024-01-15T06:44:09;98825.72;;;2.42;100.00
16120;BME280;12670;53.502;10.252;2024-01-15T06:47:12;98822.84;;;2.48;100.00
16120;BME280;12670;53.502;10.252;2024-01-15T06:50:16;98827.91;;;2.53;100.00
16120;BME280;12670;53.502;10.252;2024-01-15T06:53:19;98824.38;;;2.54;100.00
16120;BME280;12670;53.502;10.252;2024-01-15T06:56:22;98820.13;;;2.29;100.00
16120;BME280;12670;53.502;10.252;2024-01-15T06:59:26;98821.91;;;2.27;100.00
16120;BME280;12670;53.502;10.252;2024-01-15T07:02:28;98824.66;;;2.46;100.00
16120;BME280;12670;53.502;10.252;2024-01-15T07:05:31;98824.78;;;2.43;100.00
16120;BME280;12670;53.502;10.252;2024-01-15T07:08:34;98838.34;;;2.31;100.00
16120;BME280;12670;53.502;10.252;2024-01-15T07:11:36;98826.31;;;2.49;100.00
16120;BME280;12670;53.502;10.252;2024-01-15T07:14:40;98830.56;;;2.29;100.00
16120;BME280;12670;53.502;10.252;2024-01-15T07:17:44;98828.50;;;2.37;100.00
16120;BME280;12670;53.502;10.252;2024-01-15T07:20:47;98830.09;;;2.42;100.00
16120;BME280;12670;53.502;10.252;2024-01-15T07:23:49;98842.13;;;2.46;100.00
16120;BME280;12670;53.502;10.252;2024-01-15T07:26:52;98845.19;;;2.35;100.00
16120;BME280;12670;53.502;10.252;2024-01-15T07:29:56;98844.22;;;2.37;100.00
16120;BME280;12670;53.502;10.252;2024-01-15T07:33:03;98851.50;;;2.29;100.00
16120;BME280;12670;53.502;10.252;2024-01-15T07:36:06;98852.16;;;2.34;100.00
16120;BME280;12670;53.502;10.252;2024-01-15T07:39:09;98859.22;;;2.32;100.00
16120;BME280;12670;53.502;10.252;2024-01-15T07:42:12;98856.69;;;2.31;100.00
16120;BME280;12670;53.502;10.252;2024-01-15T07:45:16;98862.06;;;2.26;100.00
16120;BME280;12670;53.502;10.252;2024-01-15T07:48:19;98859.41;;;2.28;100.00
16120;BME280;12670;53.502;10.252;2024-01-15T07:51:23;98863.91;;;2.46;100.00
16120;BME280;12670;53.502;10.252;2024-01-15T07:54:25;98866.16;;;2.33;100.00
16120;BME280;12670;53.502;10.252;2024-01-15T07:57:28;98867.66;;;2.40;100.00
16120;BME280;12670;53.502;10.252;2024-01-15T08:00:32;98869.59;;;2.57;100.00
16120;BME280;12670;53.502;10.252;2024-01-15T08:03:35;98868.31;;;2.46;100.00
16120;BME280;12670;53.502;10.252;2024-01-15T08:06:38;98873.28;;;2.52;100.00
16120;BME280;12670;53.502;10.252;2024-01-15T08:09:40;98862.81;;;2.52;100.00
16120;BME280;12670;53.502;10.252;2024-01-15T08:12:43;98870.34;;;2.61;100.00
16120;BME280;12670;53.502;10.252;2024-01-15T08:15:47;98873.19;;;2.55;100.00
16120;BME280;12670;53.502;10.252;2024-01-15T08:18:52;98875.75;;;2.56;100.00
16120;BME280;12670;53.502;10.252;2024-01-15T08:21:54;98872.28;;;2.56;100.00
16120;BME280;12670;53.502;10.252;2024-01-15T08:24:57;98869.56;;;2.59;100.00
16120;BME280;12670;53.502;10.252;2024-01-15T08:28:00;98867.13;;;2.76;100.00
16120;BME280;12670;53.502;10.252;2024-01-15T08:31:04;98870.78;;;2.72;100.00
16120;BME280;12670;53.502;10.252;2024-01-15T08:34:07;98870.88;;;2.47;100.00
16120;BME280;12670;53.502;10.252;2024-01-15T08:37:10;98882.38;;;2.43;100.00
16120;BME280;12670;53.502;10.252;2024-01-15T08:40:12;98879.88;;;2.62;100.00
16120;BME280;12670;53.502;10.252;2024-01-15T08:43:15;98894.59;;;2.43;100.00
16120;BME280;12670;53.502;10.252;2024-01-15T08:46:19;98900.56;;;2.46;100.00
16120;BME280;12670;53.502;10.252;2024-01-15T08:49:22;98900.63;;;2.45;100.00
16120;BME280;12670;53.502;10.252;2024-01-15T08:52:25;98899.00;;;2.42;100.00
16120;BME280;12670;53.502;10.252;2024-01-15T08:55:28;98900.56;;;2.46;100.00
16120;BME280;12670;53.502;10.252;2024-01-15T08:58:30;98904.16;;;2.44;100.00
16120;BME280;12670;53.502;10.252;2024-01-15T09:01:34;98906.53;;;2.50;100.00
16120;BME280;12670;53.502;10.252;2024-01-15T09:04:37;98905.53;;;2.30;100.00
16120;BME280;12670;53.502;10.252;2024-01-15T09:07:40;98902.47;;;2.19;100.00
16120;BME280;12670;53.502;10.252;2024-01-15T09:10:43;98914.22;;;2.54;100.00
16120;BME280;12670;53.502;10.252;2024-01-15T09:13:45;98913.03;;;2.39;100.00
16120;BME280;12670;53.502;10.252;2024-01-15T09:16:50;98916.16;;;2.49;100.00
16120;BME280;12670;53.502;10.252;2024-01-15T09:19:53;98917.06;;;2.48;100.00
16120;BME280;12670;53.502;10.252;2024-01-15T09:22:56;98912.75;;;2.47;100.00
16120;BME280;12670;53.502;10.252;2024-01-15T09:25:59;98912.16;;;2.40;100.00
16120;BME280;12670;53.502;10.252;2024-01-15T09:29:01;98915.88;;;2.33;100.00
16120;BME280;12670;53.502;10.252;2024-01-15T09:32:06;98923.72;;;2.33;100.00
16120;BME280;12670;53.502;10.252;2024-01-15T09:35:09;98939.81;;;2.46;100.00
16120;BME280;12670;53.502;10.252;2024-01-15T09:38:12;98946.81;;;2.46;100.00
16120;BME280;12670;53.502;10.252;2024-01-15T09:41:15;98941.13;;;2.34;100.00
16120;BME280;12670;53.502;10.252;2024-01-15T09:44:18;98950.81;;;2.32;100.00
16120;BME280;12670;53.502;10.252;2024-01-15T09:47:23;98950.69;;;2.12;100.00
16120;BME280;12670;53.502;10.252;2024-01-15T09:50:26;98960.78;;;1.98;100.00
16120;BME280;12670;53.502;10.252;2024-01-15T09:53:29;98971.25;;;1.98;100.00
16120;BME280;12670;53.502;10.252;2024-01-15T09:56:33;98975.13;;;1.61;100.00
16120;BME280;12670;53.502;10.252;2024-01-15T09:59:36;98986.06;;;1.72;100.00
16120;BME280;12670;53.502;10.252;2024-01-15T10:02:41;98985.28;;;1.70;100.00
16120;BME280;12670;53.502;10.252;2024-01-15T10:05:44;98964.53;;;1.64;100.00
16120;BME280;12670;53.502;10.252;2024-01-15T10:08:48;98989.31;;;1.54;100.00
16120;BME280;12670;53.502;10.252;2024-01-15T10:11:51;98984.88;;;1.56;100.00
16120;BME280;12670;53.502;10.252;2024-01-15T10:14:53;98984.38;;;1.45;100.00
16120;BME280;12670;53.502;10.252;2024-01-15T10:17:58;99000.88;;;1.47;100.00
16120;BME280;12670;53.502;10.252;2024-01-15T10:21:02;99003.22;;;1.54;100.00
16120;BME280;12670;53.502;10.252;2024-01-15T10:24:05;98998.94;;;1.52;100.00
16120;BME280;12670;53.502;10.252;2024-01-15T10:27:09;99002.56;;;1.48;100.00
16120;BME280;12670;53.502;10.252;2024-01-15T10:30:13;98999.75;;;1.54;100.00
16120;BME280;12670;53.502;10.252;2024-01-15T10:33:21;99005.78;;;1.56;100.00
16120;BME280;12670;53.502;10.252;2024-01-15T10:36:27;99008.31;;;1.59;100.00
16120;BME280;12670;53.502;10.252;2024-01-15T10:39:29;99009.75;;;1.93;100.00
16120;BME280;12670;53.502;10.252;2024-01-15T10:42:32;99016.06;;;1.87;100.00
16120;BME280;12670;53.502;10.252;2024-01-15T10:45:35;99006.47;;;2.12;100.00
16120;BME280;12670;53.502;10.252;2024-01-15T10:48:39;99017.78;;;2.13;100.00
16120;BME280;12670;53.502;10.252;2024-01-15T10:51:42;99026.78;;;2.06;100.00
16120;BME280;12670;53.502;10.252;2024-01-15T10:54:45;99018.66;;;1.87;100.00
16120;BME280;12670;53.502;10.252;2024-01-15T10:57:49;99024.03;;;2.09;100.00
16120;BME280;12670;53.502;10.252;2024-01-15T11:00:52;99023.25;;;2.07;100.00
16120;BME280;12670;53.502;10.252;2024-01-15T11:03:56;99031.16;;;2.05;100.00
16120;BME280;12670;53.502;10.252;2024-01-15T11:07:00;99025.63;;;1.88;100.00
16120;BME280;12670;53.502;10.252;2024-01-15T11:10:06;99027.28;;;1.91;100.00
16120;BME280;12670;53.502;10.252;2024-01-15T11:13:14;99039.22;;;1.98;100.00
16120;BME280;12670;53.502;10.252;2024-01-15T11:16:17;99031.66;;;1.90;100.00
16120;BME280;12670;53.502;10.252;2024-01-15T11:19:21;99035.09;;;1.66;100.00
16120;BME280;12670;53.502;10.252;2024-01-15T11:22:48;99031.84;;;1.57;100.00
16120;BME280;12670;53.502;10.252;2024-01-15T11:25:51;99032.69;;;1.59;100.00
16120;BME280;12670;53.502;10.252;2024-01-15T11:28:54;99033.69;;;1.55;100.00
16120;BME280;12670;53.502;10.252;2024-01-15T11:32:02;99036.34;;;1.80;100.00
16120;BME280;12670;53.502;10.252;2024-01-15T11:35:08;99033.13;;;1.72;100.00
16120;BME280;12670;53.502;10.252;2024-01-15T11:38:11;99028.16;;;1.65;100.00
16120;BME280;12670;53.502;10.252;2024-01-15T11:41:14;99033.13;;;1.72;100.00
16120;BME280;12670;53.502;10.252;2024-01-15T11:44:19;99040.91;;;1.74;100.00
16120;BME280;12670;53.502;10.252;2024-01-15T11:47:40;99035.69;;;2.00;100.00
16120;BME280;12670;53.502;10.252;2024-01-15T11:50:56;99045.72;;;1.86;100.00
16120;BME280;12670;53.502;10.252;2024-01-15T11:54:03;99039.34;;;1.95;100.00
16120;BME280;12670;53.502;10.252;2024-01-15T11:57:15;99041.97;;;1.95;100.00
16120;BME280;12670;53.502;10.252;2024-01-15T12:00:22;99044.25;;;2.04;100.00
16120;BME280;12670;53.502;10.252;2024-01-15T12:03:25;99046.50;;;1.90;100.00
16120;BME280;12670;53.502;10.252;2024-01-15T12:06:29;99046.34;;;1.94;100.00
16120;BME280;12670;53.502;10.252;2024-01-15T12:09:31;99039.16;;;2.01;100.00
16120;BME280;12670;53.502;10.252;2024-01-15T12:12:47;99051.22;;;1.78;100.00
16120;BME280;12670;53.502;10.252;2024-01-15T12:15:55;99053.44;;;1.91;100.00
16120;BME280;12670;53.502;10.252;2024-01-15T12:18:58;99059.84;;;2.07;100.00
16120;BME280;12670;53.502;10.252;2024-01-15T12:22:03;99062.25;;;2.13;100.00
16120;BME280;12670;53.502;10.252;2024-01-15T12:25:07;99064.88;;;2.13;100.00
16120;BME280;12670;53.502;10.252;2024-01-15T12:28:09;99073.09;;;2.02;100.00
16120;BME280;12670;53.502;10.252;2024-01-15T12:31:13;99079.09;;;2.04;100.00
16120;BME280;12670;53.502;10.252;2024-01-15T12:34:17;99083.53;;;2.02;100.00
16120;BME280;12670;53.502;10.252;2024-01-15T12:37:21;99079.50;;;1.94;100.00
16120;BME280;12670;53.502;10.252;2024-01-15T12:40:23;99076.56;;;2.03;100.00
16120;BME280;12670;53.502;10.252;2024-01-15T12:43:26;99086.59;;;2.15;100.00
16120;BME280;12670;53.502;10.252;2024-01-15T12:46:29;99089.06;;;1.93;100.00
16120;BME280;12670;53.502;10.252;2024-01-15T12:49:32;99095.19;;;1.94;100.00
16120;BME280;12670;53.502;10.252;2024-01-15T12:52:36;99094.56;;;2.12;100.00
16120;BME280;12670;53.502;10.252;2024-01-15T12:55:40;99102.78;;;2.26;100.00
16120;BME280;12670;53.502;10.252;2024-01-15T12:58:42;99099.69;;;2.40;100.00
16120;BME280;12670;53.502;10.252;2024-01-15T13:01:45;99097.38;;;2.56;100.00
16120;BME280;12670;53.502;10.252;2024-01-15T13:04:48;99103.63;;;2.27;100.00
16120;BME280;12670;53.502;10.252;2024-01-15T13:07:53;99094.94;;;2.51;100.00
16120;BME280;12670;53.502;10.252;2024-01-15T13:10:55;99104.34;;;2.82;100.00
16120;BME280;12670;53.502;10.252;2024-01-15T13:13:59;99101.81;;;2.79;100.00
16120;BME280;12670;53.502;10.252;2024-01-15T13:17:01;99105.84;;;2.64;100.00
16120;BME280;12670;53.502;10.252;2024-01-15T13:20:06;99104.09;;;2.64;100.00
16120;BME280;12670;53.502;10.252;2024-01-15T13:23:10;99102.84;;;2.50;100.00
16120;BME280;12670;53.502;10.252;2024-01-15T13:26:14;99107.34;;;2.71;100.00
16120;BME280;12670;53.502;10.252;2024-01-15T13:29:16;99107.94;;;2.54;100.00
16120;BME280;12670;53.502;10.252;2024-01-15T13:32:23;99109.34;;;2.63;100.00
16120;BME280;12670;53.502;10.252;2024-01-15T13:35:27;99114.59;;;2.38;100.00
16120;BME280;12670;53.502;10.252;2024-01-15T13:38:31;99123.72;;;2.26;100.00
16120;BME280;12670;53.502;10.252;2024-01-15T13:41:37;99129.16;;;2.47;100.00
16120;BME280;12670;53.502;10.252;2024-01-15T13:44:40;99128.94;;;2.26;100.00
16120;BME280;12670;53.502;10.252;2024-01-15T13:47:43;99130.22;;;2.41;100.00
16120;BME280;12670;53.502;10.252;2024-01-15T13:50:46;99138.00;;;2.43;100.00
16120;BME280;12670;53.502;10.252;2024-01-15T13:53:50;99134.66;;;2.64;100.00
16120;BME280;12670;53.502;10.252;2024-01-15T13:56:54;99134.41;;;2.45;100.00
16120;BME280;12670;53.502;10.252;2024-01-15T13:59:57;99140.69;;;2.66;100.00
16120;BME280;12670;53.502;10.252;2024-01-15T14:02:59;99146.19;;;2.58;100.00
16120;BME280;12670;53.502;10.252;2024-01-15T14:06:02;99152.16;;;2.62;100.00
16120;BME280;12670;53.502;10.252;2024-01-15T14:09:11;99146.78;;;2.40;100.00
16120;BME280;12670;53.502;10.252;2024-01-15T14:12:15;99145.41;;;2.30;100.00
16120;BME280;12670;53.502;10.252;2024-01-15T14:15:18;99150.38;;;2.62;100.00
16120;BME280;12670;53.502;10.252;2024-01-15T14:18:22;99156.13;;;2.22;100.00
16120;BME280;12670;53.502;10.252;2024-01-15T14:21:25;99159.13;;;2.10;100.00
16120;BME280;12670;53.502;10.252;2024-01-15T14:24:29;99157.44;;;2.09;100.00
16120;BME280;12670;53.502;10.252;2024-01-15T14:27:32;99160.13;;;2.32;100.00
16120;BME280;12670;53.502;10.252;2024-01-15T14:30:35;99158.16;;;2.40;100.00
16120;BME280;12670;53.502;10.252;2024-01-15T14:33:38;99156.25;;;2.69;100.00
16120;BME280;12670;53.502;10.252;2024-01-15T14:36:41;99163.19;;;2.45;100.00
16120;BME280;12670;53.502;10.252;2024-01-15T14:39:45;99175.19;;;2.52;100.00
16120;BME280;12670;53.502;10.252;2024-01-15T14:42:48;99188.06;;;2.58;100.00
16120;BME280;12670;53.502;10.252;2024-01-15T14:45:50;99187.94;;;2.36;100.00
16120;BME280;12670;53.502;10.252;2024-01-15T14:48:53;99194.78;;;2.40;100.00
16120;BME280;12670;53.502;10.252;2024-01-15T14:51:56;99194.03;;;2.62;100.00
16120;BME280;12670;53.502;10.252;2024-01-15T14:55:00;99199.28;;;2.62;100.00
16120;BME280;12670;53.502;10.252;2024-01-15T14:58:03;99197.34;;;2.67;100.00
16120;BME280;12670;53.502;10.252;2024-01-15T15:01:06;99197.47;;;2.37;100.00
16120;BME280;12670;53.502;10.252;2024-01-15T15:04:09;99199.19;;;2.65;100.00
16120;BME280;12670;53.502;10.252;2024-01-15T15:07:12;99199.19;;;2.38;100.00
16120;BME280;12670;53.502;10.252;2024-01-15T15:10:16;99209.00;;;2.58;100.00
16120;BME280;12670;53.502;10.252;2024-01-15T15:13:19;99218.34;;;2.40;100.00
16120;BME280;12670;53.502;10.252;2024-01-15T15:16:38;99226.66;;;2.52;100.00
16120;BME280;12670;53.502;10.252;2024-01-15T15:19:41;99227.97;;;2.38;100.00
16120;BME280;12670;53.502;10.252;2024-01-15T15:22:44;99227.56;;;2.51;100.00
16120;BME280;12670;53.502;10.252;2024-01-15T15:25:48;99228.78;;;2.67;100.00
16120;BME280;12670;53.502;10.252;2024-01-15T15:28:51;99235.78;;;2.66;100.00
16120;BME280;12670;53.502;10.252;2024-01-15T15:31:54;99243.19;;;2.54;100.00
16120;BME280;12670;53.502;10.252;2024-01-15T15:34:56;99242.78;;;2.66;100.00
16120;BME280;12670;53.502;10.252;2024-01-15T15:37:59;99250.94;;;2.30;100.00
16120;BME280;12670;53.502;10.252;2024-01-15T15:41:04;99256.81;;;2.37;100.00
16120;BME280;12670;53.502;10.252;2024-01-15T15:44:06;99267.38;;;2.34;100.00
16120;BME280;12670;53.502;10.252;2024-01-15T15:47:10;99267.69;;;2.25;100.00
16120;BME280;12670;53.502;10.252;2024-01-15T15:50:13;99272.22;;;2.46;100.00
16120;BME280;12670;53.502;10.252;2024-01-15T15:53:16;99274.50;;;2.57;100.00
16120;BME280;12670;53.502;10.252;2024-01-15T15:56:20;99275.31;;;2.59;100.00
16120;BME280;12670;53.502;10.252;2024-01-15T15:59:22;99286.38;;;2.40;100.00